hwlogo.jpg (8581 bytes)
Home Your Weather Products Services Weather On Your Site Contact
HW Version Logo
Weather Info
Your Weather (Options)
Canadian Weather
International Weather
Enter your " Place, State", US Zip Code or ICAO:  
Forecast Information Radar Information
Red Deer, Alberta, Canada  Lat: 52.18N, Lon: 113.9W
ICAO Used: CYQF
Current Conditions
Updated: 12:00 AM MST MON FEB 19 2018
Sun & Moon Information
Light Snow
Light Snow
Temp: -21°C
Humidity: 76%
Wind Speed: W 9 MPH
Barometer: 1018 mb
Dewpoint: -24°C
Heat Index: -21°C
Wind Chill: -30°C
Civil Twilight: 7:11 AM MST Moon Phase:
Waxing Crescent Moon
Sunrise: 7:45 AM MST
Sunset: 5:52 PM MST
Civil Twilight: 6:27 PM MST
Forecast for Red Deer, AB:
(Forecast based on TAF for )
1148 PM MST SUN FEB 18 2018
  
OVERNIGHT MORNING
Mostly
Cloudy
Mostly
Cloudy
ZoneCast:
Dated: 1148 PM MST SUN FEB 18 2018
Overnight...Mostly cloudy with winds from the southsouthwest at 9 mph.

Morning...Mostly cloudy with winds from the southsouthwest at 9 mph.

Original Encoded TAF:
Dated: 1148 PM MST SUN FEB 18 2018
2018/02/19 06:48
TAF CYQF 190546Z 1906/1918 25008KT P6SM BKN050 
      TEMPO 1906/1918 6SM -SN 
      RMK NXT FCST BY 191200Z